world map with KEDJ marked

KEDJ - Airport

This information may not be accurate or current and is not valid for navigation or flight planning. No warranty of fitness for any purpose is made or implied.

flag of Ohioflag of United States

Donate via PayPal

Additional information is available on the NEW Great Circle Mapper

Location
City:  Bellefontaine, Ohio, United States
Name:Bellefontaine Regional
ICAO:KEDJ
FAA:EDJ

Details
Type:Airport (Airfield)
Use:Public/Civil
Latitude:40°22'20"N (40.372278)
Longitude:83°49'09"W (-83.819249)
Datum:WGS 1984
Elevation:1122 ft (342 m)
Runways:1
Longest:4999 × 100 ft (1524 × 30.5 m)

Time
Timezone:UTC+29:08 (DST+32:08)
Local Time:

Weather
METAR:KEDJ  281350Z AUTO 26004KT 10SM CLR M05/M09 A3036 RMK AO1

Related Locations
Nearby:
Farthest:MGV: 11309 mi / 18200 km
Margaret River, WA, AU

Find:

   beyond  
but within

Other Information
Maps:
Links:
Sources:

  

Sectional Chart

Flight Planning
at skyvector.com

 


Great Circle Mapper   Great Circle Mapper
Great Circle Mapper FAQ   Great Circle Mapper FAQ
  Karl's Home Page
KLSē   KLSē Home
   GC on Facebook
Airlines of the World   Airlines of the World
Donate via PayPal


Copyright © 2004-2014, Karl L. Swartz. All rights reserved.
All trademarks mentioned herein belong to their respective owners.

Please see credits for attribution and copyright information.

Karl Swartz <karl@kls2.com>
  Powered by FreeBSD
Valid HTML 4.01!
Labeled with ICRA
hCard Microformat
Geo Microformat